sensor_id;sensor_type;location;lat;lon;timestamp;temperature;humidity
16517;DHT22;8371;52.272;9.746;2023-07-24T00:01:57;22.40;63.20
16517;DHT22;8371;52.272;9.746;2023-07-24T00:04:22;22.40;63.60
16517;DHT22;8371;52.272;9.746;2023-07-24T00:06:48;22.40;63.80
16517;DHT22;8371;52.272;9.746;2023-07-24T00:09:14;22.30;63.70
16517;DHT22;8371;52.272;9.746;2023-07-24T00:11:40;22.30;64.10
16517;DHT22;8371;52.272;9.746;2023-07-24T00:14:06;22.30;63.70
16517;DHT22;8371;52.272;9.746;2023-07-24T00:16:32;22.20;64.30
16517;DHT22;8371;52.272;9.746;2023-07-24T00:18:57;22.20;63.80
16517;DHT22;8371;52.272;9.746;2023-07-24T00:21:23;22.20;64.60
16517;DHT22;8371;52.272;9.746;2023-07-24T00:23:49;22.20;64.10
16517;DHT22;8371;52.272;9.746;2023-07-24T00:26:14;22.10;64.10
16517;DHT22;8371;52.272;9.746;2023-07-24T00:28:40;22.10;64.20
16517;DHT22;8371;52.272;9.746;2023-07-24T00:31:06;22.10;64.50
16517;DHT22;8371;52.272;9.746;2023-07-24T00:33:31;22.10;64.50
16517;DHT22;8371;52.272;9.746;2023-07-24T00:35:57;22.00;64.40
16517;DHT22;8371;52.272;9.746;2023-07-24T00:38:23;22.00;64.40
16517;DHT22;8371;52.272;9.746;2023-07-24T00:40:49;22.00;64.70
16517;DHT22;8371;52.272;9.746;2023-07-24T00:43:15;22.00;64.90
16517;DHT22;8371;52.272;9.746;2023-07-24T00:45:42;21.90;65.00
16517;DHT22;8371;52.272;9.746;2023-07-24T00:48:08;21.90;64.90
16517;DHT22;8371;52.272;9.746;2023-07-24T00:50:35;21.90;64.90
16517;DHT22;8371;52.272;9.746;2023-07-24T00:53:01;21.90;65.10
16517;DHT22;8371;52.272;9.746;2023-07-24T00:55:27;21.80;65.00
16517;DHT22;8371;52.272;9.746;2023-07-24T00:57:53;21.80;65.20
16517;DHT22;8371;52.272;9.746;2023-07-24T01:00:19;21.80;65.70
16517;DHT22;8371;52.272;9.746;2023-07-24T01:02:45;21.80;65.70
16517;DHT22;8371;52.272;9.746;2023-07-24T01:05:13;21.80;66.50
16517;DHT22;8371;52.272;9.746;2023-07-24T01:07:40;21.80;66.10
16517;DHT22;8371;52.272;9.746;2023-07-24T01:10:06;21.80;65.90
16517;DHT22;8371;52.272;9.746;2023-07-24T01:12:43;21.90;66.00
16517;DHT22;8371;52.272;9.746;2023-07-24T01:15:13;21.90;66.00
16517;DHT22;8371;52.272;9.746;2023-07-24T01:17:42;21.90;66.10
16517;DHT22;8371;52.272;9.746;2023-07-24T01:20:11;21.90;65.90
16517;DHT22;8371;52.272;9.746;2023-07-24T01:22:39;21.90;65.80
16517;DHT22;8371;52.272;9.746;2023-07-24T01:25:14;21.90;65.80
16517;DHT22;8371;52.272;9.746;2023-07-24T01:27:45;21.90;65.70
16517;DHT22;8371;52.272;9.746;2023-07-24T01:30:16;22.00;66.00
16517;DHT22;8371;52.272;9.746;2023-07-24T01:32:41;22.00;66.00
16517;DHT22;8371;52.272;9.746;2023-07-24T01:35:06;22.00;66.00
16517;DHT22;8371;52.272;9.746;2023-07-24T01:37:34;22.00;65.80
16517;DHT22;8371;52.272;9.746;2023-07-24T01:40:00;22.00;66.60
16517;DHT22;8371;52.272;9.746;2023-07-24T01:42:26;22.00;66.00
16517;DHT22;8371;52.272;9.746;2023-07-24T01:44:54;22.00;66.00
16517;DHT22;8371;52.272;9.746;2023-07-24T01:47:20;21.90;66.10
16517;DHT22;8371;52.272;9.746;2023-07-24T01:49:46;21.90;66.00
16517;DHT22;8371;52.272;9.746;2023-07-24T01:52:11;21.90;66.10
16517;DHT22;8371;52.272;9.746;2023-07-24T01:54:37;21.90;66.10
16517;DHT22;8371;52.272;9.746;2023-07-24T01:57:03;21.90;66.20
16517;DHT22;8371;52.272;9.746;2023-07-24T01:59:29;21.90;66.40
16517;DHT22;8371;52.272;9.746;2023-07-24T02:01:55;21.90;66.40
16517;DHT22;8371;52.272;9.746;2023-07-24T02:04:20;21.90;66.30
16517;DHT22;8371;52.272;9.746;2023-07-24T02:06:49;21.90;66.50
16517;DHT22;8371;52.272;9.746;2023-07-24T02:09:17;21.90;66.40
16517;DHT22;8371;52.272;9.746;2023-07-24T02:11:43;21.90;66.50
16517;DHT22;8371;52.272;9.746;2023-07-24T02:14:08;21.90;66.70
16517;DHT22;8371;52.272;9.746;2023-07-24T02:16:35;21.90;66.70
16517;DHT22;8371;52.272;9.746;2023-07-24T02:19:01;22.00;66.80
16517;DHT22;8371;52.272;9.746;2023-07-24T02:21:26;22.00;66.80
16517;DHT22;8371;52.272;9.746;2023-07-24T02:23:52;22.00;66.70
16517;DHT22;8371;52.272;9.746;2023-07-24T02:26:18;22.00;66.80
16517;DHT22;8371;52.272;9.746;2023-07-24T02:28:43;22.00;66.70
16517;DHT22;8371;52.272;9.746;2023-07-24T02:31:09;22.00;66.70
16517;DHT22;8371;52.272;9.746;2023-07-24T02:33:35;22.00;66.80
16517;DHT22;8371;52.272;9.746;2023-07-24T02:36:01;21.90;66.80
16517;DHT22;8371;52.272;9.746;2023-07-24T02:38:27;21.90;66.80
16517;DHT22;8371;52.272;9.746;2023-07-24T02:40:53;21.90;66.90
16517;DHT22;8371;52.272;9.746;2023-07-24T02:43:18;21.90;66.90
16517;DHT22;8371;52.272;9.746;2023-07-24T02:45:44;21.90;67.00
16517;DHT22;8371;52.272;9.746;2023-07-24T02:48:10;21.90;67.00
16517;DHT22;8371;52.272;9.746;2023-07-24T02:50:35;21.90;67.80
16517;DHT22;8371;52.272;9.746;2023-07-24T02:53:01;21.90;67.00
16517;DHT22;8371;52.272;9.746;2023-07-24T02:55:27;21.90;67.00
16517;DHT22;8371;52.272;9.746;2023-07-24T02:57:53;21.90;67.00
16517;DHT22;8371;52.272;9.746;2023-07-24T03:00:19;21.80;67.00
16517;DHT22;8371;52.272;9.746;2023-07-24T03:02:44;21.80;67.10
16517;DHT22;8371;52.272;9.746;2023-07-24T03:05:10;21.70;67.00
16517;DHT22;8371;52.272;9.746;2023-07-24T03:07:36;21.70;67.10
16517;DHT22;8371;52.272;9.746;2023-07-24T03:10:02;21.70;67.00
16517;DHT22;8371;52.272;9.746;2023-07-24T03:12:28;21.60;67.00
16517;DHT22;8371;52.272;9.746;2023-07-24T03:14:54;21.60;67.00
16517;DHT22;8371;52.272;9.746;2023-07-24T03:17:20;21.60;67.20
16517;DHT22;8371;52.272;9.746;2023-07-24T03:19:48;21.50;67.80
16517;DHT22;8371;52.272;9.746;2023-07-24T03:22:13;21.40;67.00
16517;DHT22;8371;52.272;9.746;2023-07-24T03:24:39;21.40;66.50
16517;DHT22;8371;52.272;9.746;2023-07-24T03:27:04;21.30;67.20
16517;DHT22;8371;52.272;9.746;2023-07-24T03:29:30;21.30;67.30
16517;DHT22;8371;52.272;9.746;2023-07-24T03:31:56;21.20;67.40
16517;DHT22;8371;52.272;9.746;2023-07-24T03:34:21;21.20;67.50
16517;DHT22;8371;52.272;9.746;2023-07-24T03:36:47;21.20;67.60
16517;DHT22;8371;52.272;9.746;2023-07-24T03:39:13;21.10;67.70
16517;DHT22;8371;52.272;9.746;2023-07-24T03:41:39;21.10;67.70
16517;DHT22;8371;52.272;9.746;2023-07-24T03:44:04;21.00;67.90
16517;DHT22;8371;52.272;9.746;2023-07-24T03:46:32;21.00;68.00
16517;DHT22;8371;52.272;9.746;2023-07-24T03:48:58;20.90;68.10
16517;DHT22;8371;52.272;9.746;2023-07-24T03:51:24;20.90;68.10
16517;DHT22;8371;52.272;9.746;2023-07-24T03:53:50;20.80;68.10
16517;DHT22;8371;52.272;9.746;2023-07-24T03:56:15;20.80;68.20
16517;DHT22;8371;52.272;9.746;2023-07-24T03:58:41;20.80;68.30
16517;DHT22;8371;52.272;9.746;2023-07-24T04:01:08;20.80;68.50
16517;DHT22;8371;52.272;9.746;2023-07-24T04:03:34;20.80;68.60
16517;DHT22;8371;52.272;9.746;2023-07-24T04:06:00;20.80;68.80
16517;DHT22;8371;52.272;9.746;2023-07-24T04:08:26;20.80;69.10
16517;DHT22;8371;52.272;9.746;2023-07-24T04:10:51;20.80;69.50
16517;DHT22;8371;52.272;9.746;2023-07-24T04:13:17;20.80;69.60
16517;DHT22;8371;52.272;9.746;2023-07-24T04:15:43;20.90;69.60
16517;DHT22;8371;52.272;9.746;2023-07-24T04:18:10;21.00;69.90
16517;DHT22;8371;52.272;9.746;2023-07-24T04:20:36;21.10;70.30
16517;DHT22;8371;52.272;9.746;2023-07-24T04:23:02;21.30;70.50
16517;DHT22;8371;52.272;9.746;2023-07-24T04:25:27;21.50;70.90
16517;DHT22;8371;52.272;9.746;2023-07-24T04:27:53;21.70;70.90
16517;DHT22;8371;52.272;9.746;2023-07-24T04:30:19;21.90;70.90
16517;DHT22;8371;52.272;9.746;2023-07-24T04:32:44;22.10;70.60
16517;DHT22;8371;52.272;9.746;2023-07-24T04:35:11;22.40;70.30
16517;DHT22;8371;52.272;9.746;2023-07-24T04:37:37;22.50;69.70
16517;DHT22;8371;52.272;9.746;2023-07-24T04:40:04;22.70;69.20
16517;DHT22;8371;52.272;9.746;2023-07-24T04:42:30;22.90;69.10
16517;DHT22;8371;52.272;9.746;2023-07-24T04:44:56;23.00;68.90
16517;DHT22;8371;52.272;9.746;2023-07-24T04:47:22;23.20;68.60
16517;DHT22;8371;52.272;9.746;2023-07-24T04:49:47;23.30;68.10
16517;DHT22;8371;52.272;9.746;2023-07-24T04:52:13;23.40;68.50
16517;DHT22;8371;52.272;9.746;2023-07-24T04:54:39;23.40;67.30
16517;DHT22;8371;52.272;9.746;2023-07-24T04:57:04;23.40;66.90
16517;DHT22;8371;52.272;9.746;2023-07-24T04:59:30;23.40;66.70
16517;DHT22;8371;52.272;9.746;2023-07-24T05:01:56;23.40;66.50
16517;DHT22;8371;52.272;9.746;2023-07-24T05:04:21;23.40;66.60
16517;DHT22;8371;52.272;9.746;2023-07-24T05:06:47;23.40;66.70
16517;DHT22;8371;52.272;9.746;2023-07-24T05:09:13;23.40;66.70
16517;DHT22;8371;52.272;9.746;2023-07-24T05:11:40;23.40;66.80
16517;DHT22;8371;52.272;9.746;2023-07-24T05:14:07;23.50;67.20
16517;DHT22;8371;52.272;9.746;2023-07-24T05:16:33;23.50;67.30
16517;DHT22;8371;52.272;9.746;2023-07-24T05:18:58;23.60;67.50
16517;DHT22;8371;52.272;9.746;2023-07-24T05:21:24;23.80;67.60
16517;DHT22;8371;52.272;9.746;2023-07-24T05:23:50;23.90;67.50
16517;DHT22;8371;52.272;9.746;2023-07-24T05:26:15;24.00;67.40
16517;DHT22;8371;52.272;9.746;2023-07-24T05:28:41;24.20;67.30
16517;DHT22;8371;52.272;9.746;2023-07-24T05:31:07;24.30;66.90
16517;DHT22;8371;52.272;9.746;2023-07-24T05:33:33;24.50;66.60
16517;DHT22;8371;52.272;9.746;2023-07-24T05:36:00;24.50;66.20
16517;DHT22;8371;52.272;9.746;2023-07-24T05:38:26;24.60;66.00
16517;DHT22;8371;52.272;9.746;2023-07-24T05:41:02;24.70;65.50
16517;DHT22;8371;52.272;9.746;2023-07-24T05:43:24;24.70;65.20
16517;DHT22;8371;52.272;9.746;2023-07-24T05:45:51;24.80;65.10
16517;DHT22;8371;52.272;9.746;2023-07-24T05:48:17;24.80;64.80
16517;DHT22;8371;52.272;9.746;2023-07-24T05:50:43;24.70;64.60
16517;DHT22;8371;52.272;9.746;2023-07-24T05:53:08;24.70;64.70
16517;DHT22;8371;52.272;9.746;2023-07-24T05:55:34;24.60;64.70
16517;DHT22;8371;52.272;9.746;2023-07-24T05:58:00;24.50;64.60
16517;DHT22;8371;52.272;9.746;2023-07-24T06:00:25;24.50;64.80
16517;DHT22;8371;52.272;9.746;2023-07-24T06:02:52;24.40;65.00
16517;DHT22;8371;52.272;9.746;2023-07-24T06:05:18;24.30;65.10
16517;DHT22;8371;52.272;9.746;2023-07-24T06:07:46;24.30;65.50
16517;DHT22;8371;52.272;9.746;2023-07-24T06:10:12;24.20;66.80
16517;DHT22;8371;52.272;9.746;2023-07-24T06:12:38;24.10;66.10
16517;DHT22;8371;52.272;9.746;2023-07-24T06:15:04;24.10;66.50
16517;DHT22;8371;52.272;9.746;2023-07-24T06:17:30;24.20;67.10
16517;DHT22;8371;52.272;9.746;2023-07-24T06:19:56;24.30;67.40
16517;DHT22;8371;52.272;9.746;2023-07-24T06:22:22;24.30;67.50
16517;DHT22;8371;52.272;9.746;2023-07-24T06:24:48;24.40;67.30
16517;DHT22;8371;52.272;9.746;2023-07-24T06:27:14;24.50;67.00
16517;DHT22;8371;52.272;9.746;2023-07-24T06:29:40;24.50;67.00
16517;DHT22;8371;52.272;9.746;2023-07-24T06:32:06;24.70;67.00
16517;DHT22;8371;52.272;9.746;2023-07-24T06:34:33;24.70;66.90
16517;DHT22;8371;52.272;9.746;2023-07-24T06:36:58;24.80;66.70
16517;DHT22;8371;52.272;9.746;2023-07-24T06:39:24;24.80;66.40
16517;DHT22;8371;52.272;9.746;2023-07-24T06:41:53;24.90;66.30
16517;DHT22;8371;52.272;9.746;2023-07-24T06:44:19;24.90;66.00
16517;DHT22;8371;52.272;9.746;2023-07-24T06:46:44;25.00;65.90
16517;DHT22;8371;52.272;9.746;2023-07-24T06:49:10;25.00;65.80
16517;DHT22;8371;52.272;9.746;2023-07-24T06:51:36;25.10;65.70
16517;DHT22;8371;52.272;9.746;2023-07-24T06:54:08;25.00;65.50
16517;DHT22;8371;52.272;9.746;2023-07-24T06:56:31;25.10;65.50
16517;DHT22;8371;52.272;9.746;2023-07-24T06:58:57;25.10;65.60
16517;DHT22;8371;52.272;9.746;2023-07-24T07:01:23;25.10;65.70
16517;DHT22;8371;52.272;9.746;2023-07-24T07:03:49;25.20;65.50
16517;DHT22;8371;52.272;9.746;2023-07-24T07:06:14;25.20;65.30
16517;DHT22;8371;52.272;9.746;2023-07-24T07:08:40;25.20;65.20
16517;DHT22;8371;52.272;9.746;2023-07-24T07:11:06;25.20;65.00
16517;DHT22;8371;52.272;9.746;2023-07-24T07:13:31;25.20;64.80
16517;DHT22;8371;52.272;9.746;2023-07-24T07:15:57;25.20;64.70
16517;DHT22;8371;52.272;9.746;2023-07-24T07:18:23;25.20;64.60
16517;DHT22;8371;52.272;9.746;2023-07-24T07:20:51;25.20;64.60
16517;DHT22;8371;52.272;9.746;2023-07-24T07:23:17;25.20;64.70
16517;DHT22;8371;52.272;9.746;2023-07-24T07:25:44;25.20;64.60
16517;DHT22;8371;52.272;9.746;2023-07-24T07:28:14;25.20;64.70
16517;DHT22;8371;52.272;9.746;2023-07-24T07:30:40;25.20;64.50
16517;DHT22;8371;52.272;9.746;2023-07-24T07:33:06;25.20;64.40
16517;DHT22;8371;52.272;9.746;2023-07-24T07:35:34;25.20;64.30
16517;DHT22;8371;52.272;9.746;2023-07-24T07:38:00;25.20;64.20
16517;DHT22;8371;52.272;9.746;2023-07-24T07:40:26;25.10;64.10
16517;DHT22;8371;52.272;9.746;2023-07-24T07:42:53;25.10;64.40
16517;DHT22;8371;52.272;9.746;2023-07-24T07:45:19;25.10;64.60
16517;DHT22;8371;52.272;9.746;2023-07-24T07:47:45;25.20;64.80
16517;DHT22;8371;52.272;9.746;2023-07-24T07:50:11;25.20;65.00
16517;DHT22;8371;52.272;9.746;2023-07-24T07:52:37;25.20;65.10
16517;DHT22;8371;52.272;9.746;2023-07-24T07:55:03;25.20;65.00
16517;DHT22;8371;52.272;9.746;2023-07-24T07:57:29;25.20;64.90
16517;DHT22;8371;52.272;9.746;2023-07-24T07:59:55;25.20;64.90
16517;DHT22;8371;52.272;9.746;2023-07-24T08:02:20;25.20;64.90
16517;DHT22;8371;52.272;9.746;2023-07-24T08:04:46;25.20;65.00
16517;DHT22;8371;52.272;9.746;2023-07-24T08:07:12;25.10;64.70
16517;DHT22;8371;52.272;9.746;2023-07-24T08:09:37;25.00;65.30
16517;DHT22;8371;52.272;9.746;2023-07-24T08:12:04;24.90;64.50
16517;DHT22;8371;52.272;9.746;2023-07-24T08:14:30;24.80;64.60
16517;DHT22;8371;52.272;9.746;2023-07-24T08:16:56;24.50;64.60
16517;DHT22;8371;52.272;9.746;2023-07-24T08:19:21;24.40;64.80
16517;DHT22;8371;52.272;9.746;2023-07-24T08:21:47;24.20;64.90
16517;DHT22;8371;52.272;9.746;2023-07-24T08:24:13;24.00;65.50
16517;DHT22;8371;52.272;9.746;2023-07-24T08:26:38;23.90;66.40
16517;DHT22;8371;52.272;9.746;2023-07-24T08:29:05;23.80;67.40
16517;DHT22;8371;52.272;9.746;2023-07-24T08:31:31;23.80;68.20
16517;DHT22;8371;52.272;9.746;2023-07-24T08:33:56;23.80;68.90
16517;DHT22;8371;52.272;9.746;2023-07-24T08:36:22;24.00;69.10
16517;DHT22;8371;52.272;9.746;2023-07-24T08:38:48;24.00;68.90
16517;DHT22;8371;52.272;9.746;2023-07-24T08:41:14;24.20;68.90
16517;DHT22;8371;52.272;9.746;2023-07-24T08:43:41;24.30;68.00
16517;DHT22;8371;52.272;9.746;2023-07-24T08:46:08;24.50;69.00
16517;DHT22;8371;52.272;9.746;2023-07-24T08:48:36;24.60;69.10
16517;DHT22;8371;52.272;9.746;2023-07-24T08:51:07;24.70;69.10
16517;DHT22;8371;52.272;9.746;2023-07-24T08:53:34;24.90;69.20
16517;DHT22;8371;52.272;9.746;2023-07-24T08:56:04;25.10;68.90
16517;DHT22;8371;52.272;9.746;2023-07-24T08:58:30;25.30;68.60
16517;DHT22;8371;52.272;9.746;2023-07-24T09:00:59;25.50;68.50
16517;DHT22;8371;52.272;9.746;2023-07-24T09:03:25;25.60;68.20
16517;DHT22;8371;52.272;9.746;2023-07-24T09:05:51;25.80;67.50
16517;DHT22;8371;52.272;9.746;2023-07-24T09:08:33;25.90;67.50
16517;DHT22;8371;52.272;9.746;2023-07-24T09:10:57;26.00;67.10
16517;DHT22;8371;52.272;9.746;2023-07-24T09:13:23;26.20;67.00
16517;DHT22;8371;52.272;9.746;2023-07-24T09:15:49;26.20;66.60
16517;DHT22;8371;52.272;9.746;2023-07-24T09:18:14;26.30;66.10
16517;DHT22;8371;52.272;9.746;2023-07-24T09:20:42;26.30;65.60
16517;DHT22;8371;52.272;9.746;2023-07-24T09:23:09;26.40;65.60
16517;DHT22;8371;52.272;9.746;2023-07-24T09:25:37;26.40;65.50
16517;DHT22;8371;52.272;9.746;2023-07-24T09:28:11;26.50;65.60
16517;DHT22;8371;52.272;9.746;2023-07-24T09:30:38;26.60;65.80
16517;DHT22;8371;52.272;9.746;2023-07-24T09:33:04;26.60;65.70
16517;DHT22;8371;52.272;9.746;2023-07-24T09:35:30;26.70;65.40
16517;DHT22;8371;52.272;9.746;2023-07-24T09:38:05;26.80;65.30
16517;DHT22;8371;52.272;9.746;2023-07-24T09:40:42;26.80;64.80
16517;DHT22;8371;52.272;9.746;2023-07-24T09:45:44;27.10;65.00
16517;DHT22;8371;52.272;9.746;2023-07-24T09:48:14;27.30;65.50
16517;DHT22;8371;52.272;9.746;2023-07-24T09:50:41;27.50;65.00
16517;DHT22;8371;52.272;9.746;2023-07-24T09:53:12;27.70;64.70
16517;DHT22;8371;52.272;9.746;2023-07-24T09:55:43;28.00;63.50
16517;DHT22;8371;52.272;9.746;2023-07-24T09:58:06;28.10;64.50
16517;DHT22;8371;52.272;9.746;2023-07-24T10:00:33;28.20;64.00
16517;DHT22;8371;52.272;9.746;2023-07-24T10:02:59;28.40;63.70
16517;DHT22;8371;52.272;9.746;2023-07-24T10:05:25;28.60;63.30
16517;DHT22;8371;52.272;9.746;2023-07-24T10:07:51;28.70;62.80
16517;DHT22;8371;52.272;9.746;2023-07-24T10:10:17;28.90;62.50
16517;DHT22;8371;52.272;9.746;2023-07-24T10:12:43;29.00;61.80
16517;DHT22;8371;52.272;9.746;2023-07-24T10:15:10;29.20;61.80
16517;DHT22;8371;52.272;9.746;2023-07-24T10:17:37;29.20;60.70
16517;DHT22;8371;52.272;9.746;2023-07-24T10:20:05;29.30;60.20
16517;DHT22;8371;52.272;9.746;2023-07-24T10:22:31;29.20;59.80
16517;DHT22;8371;52.272;9.746;2023-07-24T10:24:57;29.20;59.40
16517;DHT22;8371;52.272;9.746;2023-07-24T10:27:23;29.20;59.50
16517;DHT22;8371;52.272;9.746;2023-07-24T10:30:03;29.20;59.60
16517;DHT22;8371;52.272;9.746;2023-07-24T10:32:30;29.30;60.60
16517;DHT22;8371;52.272;9.746;2023-07-24T10:35:06;29.40;60.10
16517;DHT22;8371;52.272;9.746;2023-07-24T10:37:37;29.50;59.30
16517;DHT22;8371;52.272;9.746;2023-07-24T10:40:04;29.60;59.30
16517;DHT22;8371;52.272;9.746;2023-07-24T10:42:30;29.70;58.60
16517;DHT22;8371;52.272;9.746;2023-07-24T10:45:03;29.70;58.30
16517;DHT22;8371;52.272;9.746;2023-07-24T10:47:29;29.60;57.60
16517;DHT22;8371;52.272;9.746;2023-07-24T10:49:57;29.70;57.70
16517;DHT22;8371;52.272;9.746;2023-07-24T10:52:33;29.70;57.80
16517;DHT22;8371;52.272;9.746;2023-07-24T10:55:05;29.60;57.30
16517;DHT22;8371;52.272;9.746;2023-07-24T10:57:31;29.60;57.10
16517;DHT22;8371;52.272;9.746;2023-07-24T10:59:57;29.50;57.40
16517;DHT22;8371;52.272;9.746;2023-07-24T11:02:23;29.40;57.60
16517;DHT22;8371;52.272;9.746;2023-07-24T11:04:49;29.40;57.60
16517;DHT22;8371;52.272;9.746;2023-07-24T11:07:15;29.40;57.50
16517;DHT22;8371;52.272;9.746;2023-07-24T11:09:41;29.40;57.20
16517;DHT22;8371;52.272;9.746;2023-07-24T11:12:13;29.40;56.80
16517;DHT22;8371;52.272;9.746;2023-07-24T11:14:47;29.40;57.00
16517;DHT22;8371;52.272;9.746;2023-07-24T11:17:13;29.40;57.10
16517;DHT22;8371;52.272;9.746;2023-07-24T11:19:38;29.40;57.30
16517;DHT22;8371;52.272;9.746;2023-07-24T11:22:04;29.40;57.30
16517;DHT22;8371;52.272;9.746;2023-07-24T11:24:30;29.50;57.10
16517;DHT22;8371;52.272;9.746;2023-07-24T11:26:56;29.60;57.40
16517;DHT22;8371;52.272;9.746;2023-07-24T11:29:23;29.70;56.80
16517;DHT22;8371;52.272;9.746;2023-07-24T11:31:55;29.80;56.60
16517;DHT22;8371;52.272;9.746;2023-07-24T11:34:22;29.90;56.20
16517;DHT22;8371;52.272;9.746;2023-07-24T11:36:49;30.10;56.00
16517;DHT22;8371;52.272;9.746;2023-07-24T11:39:23;30.30;56.00
16517;DHT22;8371;52.272;9.746;2023-07-24T11:41:49;30.40;56.20
16517;DHT22;8371;52.272;9.746;2023-07-24T11:44:15;30.60;56.20
16517;DHT22;8371;52.272;9.746;2023-07-24T11:46:42;30.80;55.50
16517;DHT22;8371;52.272;9.746;2023-07-24T11:49:09;31.00;55.30
16517;DHT22;8371;52.272;9.746;2023-07-24T11:51:36;31.10;54.60
16517;DHT22;8371;52.272;9.746;2023-07-24T11:54:11;31.10;54.00
16517;DHT22;8371;52.272;9.746;2023-07-24T11:56:37;31.10;53.50
16517;DHT22;8371;52.272;9.746;2023-07-24T11:59:12;31.00;53.50
16517;DHT22;8371;52.272;9.746;2023-07-24T12:01:38;30.80;53.60
16517;DHT22;8371;52.272;9.746;2023-07-24T12:04:04;30.60;53.70
16517;DHT22;8371;52.272;9.746;2023-07-24T12:06:31;30.30;53.60
16517;DHT22;8371;52.272;9.746;2023-07-24T12:09:03;30.10;54.10
16517;DHT22;8371;52.272;9.746;2023-07-24T12:11:31;29.80;54.20
16517;DHT22;8371;52.272;9.746;2023-07-24T12:13:57;29.60;54.40
16517;DHT22;8371;52.272;9.746;2023-07-24T12:16:23;29.30;54.50
16517;DHT22;8371;52.272;9.746;2023-07-24T12:18:48;29.10;54.50
16517;DHT22;8371;52.272;9.746;2023-07-24T12:21:14;28.90;54.80
16517;DHT22;8371;52.272;9.746;2023-07-24T12:23:40;28.70;55.50
16517;DHT22;8371;52.272;9.746;2023-07-24T12:26:05;28.50;55.20
16517;DHT22;8371;52.272;9.746;2023-07-24T12:28:31;28.30;55.20
16517;DHT22;8371;52.272;9.746;2023-07-24T12:30:57;28.10;55.30
16517;DHT22;8371;52.272;9.746;2023-07-24T12:33:22;27.90;55.40
16517;DHT22;8371;52.272;9.746;2023-07-24T12:35:49;27.60;55.60
16517;DHT22;8371;52.272;9.746;2023-07-24T12:38:15;27.40;55.90
16517;DHT22;8371;52.272;9.746;2023-07-24T12:40:41;27.20;56.20
16517;DHT22;8371;52.272;9.746;2023-07-24T12:43:07;27.00;56.20
16517;DHT22;8371;52.272;9.746;2023-07-24T12:45:32;26.70;56.30
16517;DHT22;8371;52.272;9.746;2023-07-24T12:47:58;26.50;56.60
16517;DHT22;8371;52.272;9.746;2023-07-24T12:50:23;26.30;56.80
16517;DHT22;8371;52.272;9.746;2023-07-24T12:52:50;26.00;57.00
16517;DHT22;8371;52.272;9.746;2023-07-24T12:55:15;25.80;58.00
16517;DHT22;8371;52.272;9.746;2023-07-24T12:57:41;25.50;57.60
16517;DHT22;8371;52.272;9.746;2023-07-24T13:00:07;25.40;58.00
16517;DHT22;8371;52.272;9.746;2023-07-24T13:02:34;25.20;58.30
16517;DHT22;8371;52.272;9.746;2023-07-24T13:05:00;25.10;58.50
16517;DHT22;8371;52.272;9.746;2023-07-24T13:07:27;24.90;59.00
16517;DHT22;8371;52.272;9.746;2023-07-24T13:09:54;24.90;59.70
16517;DHT22;8371;52.272;9.746;2023-07-24T13:12:20;24.90;60.20
16517;DHT22;8371;52.272;9.746;2023-07-24T13:14:46;24.90;60.80
16517;DHT22;8371;52.272;9.746;2023-07-24T13:17:11;25.00;61.10
16517;DHT22;8371;52.272;9.746;2023-07-24T13:19:37;25.10;61.20
16517;DHT22;8371;52.272;9.746;2023-07-24T13:22:03;25.20;61.30
16517;DHT22;8371;52.272;9.746;2023-07-24T13:24:29;25.30;61.40
16517;DHT22;8371;52.272;9.746;2023-07-24T13:26:55;25.40;61.30
16517;DHT22;8371;52.272;9.746;2023-07-24T13:29:20;25.40;61.40
16517;DHT22;8371;52.272;9.746;2023-07-24T13:31:46;25.50;61.50
16517;DHT22;8371;52.272;9.746;2023-07-24T13:34:12;25.60;61.60
16517;DHT22;8371;52.272;9.746;2023-07-24T13:36:37;25.60;61.80
16517;DHT22;8371;52.272;9.746;2023-07-24T13:39:03;25.80;61.80
16517;DHT22;8371;52.272;9.746;2023-07-24T13:41:29;25.90;61.70
16517;DHT22;8371;52.272;9.746;2023-07-24T13:43:55;25.90;61.50
16517;DHT22;8371;52.272;9.746;2023-07-24T13:46:21;26.00;61.30
16517;DHT22;8371;52.272;9.746;2023-07-24T13:48:46;26.00;61.20
16517;DHT22;8371;52.272;9.746;2023-07-24T13:51:12;25.90;60.90
16517;DHT22;8371;52.272;9.746;2023-07-24T13:53:38;25.80;60.80
16517;DHT22;8371;52.272;9.746;2023-07-24T13:56:04;25.70;60.80
16517;DHT22;8371;52.272;9.746;2023-07-24T13:58:29;25.70;60.70
16517;DHT22;8371;52.272;9.746;2023-07-24T14:00:55;25.60;60.90
16517;DHT22;8371;52.272;9.746;2023-07-24T14:03:21;25.40;60.70
16517;DHT22;8371;52.272;9.746;2023-07-24T14:05:49;25.30;61.00
16517;DHT22;8371;52.272;9.746;2023-07-24T14:08:14;25.20;60.90
16517;DHT22;8371;52.272;9.746;2023-07-24T14:10:40;25.00;61.10
16517;DHT22;8371;52.272;9.746;2023-07-24T14:13:06;24.90;61.30
16517;DHT22;8371;52.272;9.746;2023-07-24T14:15:32;24.70;61.00
16517;DHT22;8371;52.272;9.746;2023-07-24T14:17:58;24.50;61.00
16517;DHT22;8371;52.272;9.746;2023-07-24T14:20:23;24.30;61.10
16517;DHT22;8371;52.272;9.746;2023-07-24T14:22:49;24.00;61.40
16517;DHT22;8371;52.272;9.746;2023-07-24T14:25:14;23.80;61.60
16517;DHT22;8371;52.272;9.746;2023-07-24T14:27:40;23.60;62.10
16517;DHT22;8371;52.272;9.746;2023-07-24T14:30:08;23.40;62.00
16517;DHT22;8371;52.272;9.746;2023-07-24T14:32:35;23.20;62.40
16517;DHT22;8371;52.272;9.746;2023-07-24T14:35:00;23.10;63.00
16517;DHT22;8371;52.272;9.746;2023-07-24T14:37:26;22.90;62.90
16517;DHT22;8371;52.272;9.746;2023-07-24T14:39:52;22.70;63.30
16517;DHT22;8371;52.272;9.746;2023-07-24T14:42:17;22.60;63.60
16517;DHT22;8371;52.272;9.746;2023-07-24T14:44:43;22.40;63.80
16517;DHT22;8371;52.272;9.746;2023-07-24T14:47:09;22.40;64.20
16517;DHT22;8371;52.272;9.746;2023-07-24T14:49:34;22.20;64.50
16517;DHT22;8371;52.272;9.746;2023-07-24T14:52:00;22.20;64.80
16517;DHT22;8371;52.272;9.746;2023-07-24T14:54:26;22.00;64.80
16517;DHT22;8371;52.272;9.746;2023-07-24T14:56:51;22.00;65.00
16517;DHT22;8371;52.272;9.746;2023-07-24T14:59:17;21.90;65.10
16517;DHT22;8371;52.272;9.746;2023-07-24T15:01:43;21.90;65.10
16517;DHT22;8371;52.272;9.746;2023-07-24T15:04:08;21.80;65.00
16517;DHT22;8371;52.272;9.746;2023-07-24T15:06:34;21.80;65.20
16517;DHT22;8371;52.272;9.746;2023-07-24T15:09:00;21.70;65.30
16517;DHT22;8371;52.272;9.746;2023-07-24T15:11:26;21.70;66.30
16517;DHT22;8371;52.272;9.746;2023-07-24T15:13:52;21.70;65.80
16517;DHT22;8371;52.272;9.746;2023-07-24T15:16:18;21.60;66.00
16517;DHT22;8371;52.272;9.746;2023-07-24T15:18:43;21.60;66.40
16517;DHT22;8371;52.272;9.746;2023-07-24T15:21:10;21.60;66.30
16517;DHT22;8371;52.272;9.746;2023-07-24T15:23:36;21.70;66.50
16517;DHT22;8371;52.272;9.746;2023-07-24T15:26:01;21.70;66.70
16517;DHT22;8371;52.272;9.746;2023-07-24T15:28:27;21.80;67.20
16517;DHT22;8371;52.272;9.746;2023-07-24T15:30:53;21.80;68.30
16517;DHT22;8371;52.272;9.746;2023-07-24T15:33:19;21.90;67.80
16517;DHT22;8371;52.272;9.746;2023-07-24T15:35:45;22.00;68.00
16517;DHT22;8371;52.272;9.746;2023-07-24T15:38:11;22.10;68.20
16517;DHT22;8371;52.272;9.746;2023-07-24T15:40:37;22.20;68.40
16517;DHT22;8371;52.272;9.746;2023-07-24T15:43:05;22.30;68.40